createdAt,value
2023-05-05T00:01:19.352Z,101523.69
2023-05-05T00:04:24.149Z,101525.56
2023-05-05T00:07:27.193Z,101520.41
2023-05-05T00:10:32.501Z,101521.28
2023-05-05T00:13:35.605Z,101526.69
2023-05-05T00:16:38.823Z,101518.13
2023-05-05T00:19:41.961Z,101520.34
2023-05-05T00:22:45.031Z,101517.84
2023-05-05T00:25:49.366Z,101528.44
2023-05-05T00:28:52.425Z,101519.41
2023-05-05T00:31:56.322Z,101511.03
2023-05-05T00:34:59.388Z,101512.69
2023-05-05T00:38:02.949Z,101505.34
2023-05-05T00:41:07.826Z,101500.97
2023-05-05T00:44:10.830Z,101502.44
2023-05-05T00:47:14.719Z,101500.75
2023-05-05T00:50:24.654Z,101500.13
2023-05-05T00:53:28.363Z,101497.13
2023-05-05T00:56:32.949Z,101492.38
2023-05-05T00:59:37.150Z,101493.22
2023-05-05T01:02:41.186Z,101498.03
2023-05-05T01:05:57.058Z,101493.84
2023-05-05T01:09:10.254Z,101495.69
2023-05-05T01:12:25.881Z,101490.41
2023-05-05T01:15:34.667Z,101487.88
2023-05-05T01:18:45.229Z,101492.53
2023-05-05T01:21:55.448Z,101490.84
2023-05-05T01:25:28.702Z,101487.50
2023-05-05T01:29:00.458Z,101486.75
2023-05-05T01:32:08.870Z,101476.59
2023-05-05T01:35:19.267Z,101478.63
2023-05-05T01:38:27.626Z,101480.41
2023-05-05T01:41:36.795Z,101477.03
2023-05-05T01:44:40.495Z,101485.03
2023-05-05T01:47:45.952Z,101486.59
2023-05-05T01:50:50.871Z,101495.81
2023-05-05T01:53:56.107Z,101490.59
2023-05-05T01:57:03.612Z,101485.53
2023-05-05T02:00:09.783Z,101487.56
2023-05-05T02:03:24.799Z,101484.31
2023-05-05T02:06:32.408Z,101480.38
2023-05-05T02:09:37.336Z,101482.41
2023-05-05T02:12:42.278Z,101485.28
2023-05-05T02:15:45.980Z,101478.31
2023-05-05T02:18:51.292Z,101476.53
2023-05-05T02:21:54.369Z,101487.31
2023-05-05T02:24:57.370Z,101478.28
2023-05-05T02:28:03.653Z,101482.56
2023-05-05T02:31:08.606Z,101483.00
2023-05-05T02:34:17.597Z,101478.53
2023-05-05T02:37:24.659Z,101480.47
2023-05-05T02:40:34.364Z,101470.97
2023-05-05T02:43:42.133Z,101474.31
2023-05-05T02:46:46.750Z,101469.13
2023-05-05T02:49:52.167Z,101476.38
2023-05-05T02:52:55.324Z,101472.06
2023-05-05T02:56:10.369Z,101474.03
2023-05-05T02:59:28.748Z,101473.44
2023-05-05T03:02:45.628Z,101483.75
2023-05-05T03:05:59.729Z,101479.72
2023-05-05T03:09:08.889Z,101474.38
2023-05-05T03:12:20.629Z,101471.81
2023-05-05T03:15:49.260Z,101477.94
2023-05-05T03:18:56.881Z,101477.22
2023-05-05T03:22:01.925Z,101482.56
2023-05-05T03:25:06.440Z,101472.16
2023-05-05T03:28:09.882Z,101478.88
2023-05-05T03:31:13.204Z,101465.78
2023-05-05T03:34:16.413Z,101480.72
2023-05-05T03:37:24.142Z,101483.25
2023-05-05T03:40:40.435Z,101481.47
2023-05-05T03:43:47.810Z,101490.28
2023-05-05T03:46:50.912Z,101472.16
2023-05-05T03:49:54.786Z,101484.25
2023-05-05T03:52:59.143Z,101483.56
2023-05-05T03:56:02.648Z,101489.84
2023-05-05T03:59:07.420Z,101478.53
2023-05-05T04:02:10.889Z,101476.75
2023-05-05T04:05:14.117Z,101472.47
2023-05-05T04:08:18.700Z,101477.78
2023-05-05T04:11:24.904Z,101479.53
2023-05-05T04:14:28.913Z,101481.91
2023-05-05T04:17:32.243Z,101476.75
2023-05-05T04:20:36.264Z,101469.78
2023-05-05T04:23:40.800Z,101471.50
2023-05-05T04:26:43.868Z,101468.81
2023-05-05T04:29:47.814Z,101467.28
2023-05-05T04:32:52.430Z,101478.97
2023-05-05T04:35:55.817Z,101479.56
2023-05-05T04:39:00.439Z,101484.44
2023-05-05T04:42:04.250Z,101486.78
2023-05-05T04:45:09.884Z,101492.28
2023-05-05T04:48:13.469Z,101491.31
2023-05-05T04:51:16.519Z,101495.34
2023-05-05T04:54:21.351Z,101501.38
2023-05-05T04:57:24.491Z,101501.22
2023-05-05T05:00:28.843Z,101503.38
2023-05-05T05:03:32.133Z,101505.84
2023-05-05T05:06:35.704Z,101507.28
2023-05-05T05:09:40.162Z,101499.03
2023-05-05T05:12:43.249Z,101508.94
2023-05-05T05:15:47.243Z,101518.44
2023-05-05T05:18:51.002Z,101515.22
2023-05-05T05:21:54.193Z,101509.41
2023-05-05T05:24:58.708Z,101498.44
2023-05-05T05:28:10.256Z,101509.25
2023-05-05T05:31:22.272Z,101508.44
2023-05-05T05:34:25.698Z,101513.28
2023-05-05T05:37:30.977Z,101512.75
2023-05-05T05:40:36.399Z,101504.97
2023-05-05T05:43:39.466Z,101510.19
2023-05-05T05:46:42.779Z,101513.94
2023-05-05T05:49:46.371Z,101522.50
2023-05-05T05:52:49.457Z,101516.06
2023-05-05T05:55:54.024Z,101519.31
2023-05-05T05:58:57.249Z,101518.28
2023-05-05T06:02:00.368Z,101518.47
2023-05-05T06:05:03.920Z,101506.56
2023-05-05T06:08:07.292Z,101503.75
2023-05-05T06:11:16.738Z,101504.28
2023-05-05T06:14:20.417Z,101501.19
2023-05-05T06:17:24.514Z,101508.47
2023-05-05T06:20:27.560Z,101514.97
2023-05-05T06:23:31.261Z,101520.69
2023-05-05T06:26:43.240Z,101516.94
2023-05-05T06:29:46.333Z,101521.88
2023-05-05T06:32:49.376Z,101519.34
2023-05-05T06:35:53.153Z,101513.13
2023-05-05T06:38:56.462Z,101515.09
2023-05-05T06:42:00.776Z,101517.44
2023-05-05T06:45:03.879Z,101518.50
2023-05-05T06:48:07.106Z,101517.72
2023-05-05T06:51:10.702Z,101515.41
2023-05-05T06:54:14.045Z,101515.41
2023-05-05T06:57:18.338Z,101514.69
2023-05-05T07:00:22.276Z,101517.44
2023-05-05T07:03:25.431Z,101518.50
2023-05-05T07:06:28.866Z,101521.75
2023-05-05T07:09:31.969Z,101515.03
2023-05-05T07:12:37.031Z,101521.19
2023-05-05T07:15:46.287Z,101516.69
2023-05-05T07:18:49.442Z,101515.84
2023-05-05T07:21:52.905Z,101525.72
2023-05-05T07:24:56.004Z,101520.97
2023-05-05T07:28:00.439Z,101518.81
2023-05-05T07:31:03.431Z,101531.47
2023-05-05T07:34:06.448Z,101524.94
2023-05-05T07:37:09.656Z,101536.44
2023-05-05T07:40:13.441Z,101535.75
2023-05-05T07:43:17.771Z,101537.09
2023-05-05T07:46:20.843Z,101530.94
2023-05-05T07:49:23.861Z,101535.72
2023-05-05T07:52:43.358Z,101541.50
2023-05-05T07:55:48.109Z,101539.91
2023-05-05T07:58:52.420Z,101545.66
2023-05-05T08:01:55.495Z,101542.06
2023-05-05T08:04:58.496Z,101547.59
2023-05-05T08:08:01.454Z,101548.06
2023-05-05T08:11:06.378Z,101534.34
2023-05-05T08:14:10.826Z,101534.22
2023-05-05T08:17:13.960Z,101526.59
2023-05-05T08:20:17.175Z,101519.28
2023-05-05T08:23:20.209Z,101514.22
2023-05-05T08:26:23.428Z,101522.59
2023-05-05T08:29:27.815Z,101518.63
2023-05-05T08:32:30.915Z,101507.75
2023-05-05T08:35:33.967Z,101521.81
2023-05-05T08:38:37.283Z,101515.84
2023-05-05T08:41:40.365Z,101506.56
2023-05-05T08:44:44.707Z,101528.03
2023-05-05T08:47:47.754Z,101523.41
2023-05-05T08:50:58.854Z,101518.72
2023-05-05T08:54:05.201Z,101518.19
2023-05-05T08:57:11.439Z,101515.91
2023-05-05T09:00:19.411Z,101515.75
2023-05-05T09:03:23.116Z,101515.66
2023-05-05T09:06:28.863Z,101519.13
2023-05-05T09:09:32.549Z,101505.50
2023-05-05T09:12:36.521Z,101517.31
2023-05-05T09:15:42.103Z,101518.44
2023-05-05T09:18:46.027Z,101517.97
2023-05-05T09:21:49.821Z,101524.94
2023-05-05T09:24:56.818Z,101521.41
2023-05-05T09:28:00.000Z,101516.06
2023-05-05T09:31:17.088Z,101508.97
2023-05-05T09:34:20.252Z,101512.53
2023-05-05T09:37:28.970Z,101514.13
2023-05-05T09:40:47.384Z,101500.97
2023-05-05T09:43:53.086Z,101499.34
2023-05-05T09:46:58.220Z,101489.06
2023-05-05T09:50:01.964Z,101497.53
2023-05-05T09:53:05.586Z,101503.78
2023-05-05T09:56:10.317Z,101510.94
2023-05-05T09:59:13.455Z,101499.88
2023-05-05T10:02:18.105Z,101507.75
2023-05-05T10:05:21.470Z,101509.03
2023-05-05T10:08:26.867Z,101502.38
2023-05-05T10:11:30.384Z,101506.44
2023-05-05T10:14:35.055Z,101506.00
2023-05-05T10:18:05.265Z,101507.53
2023-05-05T10:21:12.162Z,101494.63
2023-05-05T10:24:27.332Z,101491.47
2023-05-05T10:27:41.748Z,101494.22
2023-05-05T10:30:48.078Z,101483.38
2023-05-05T10:33:56.112Z,101482.09
2023-05-05T10:37:03.019Z,101495.84
2023-05-05T10:40:09.796Z,101485.50
2023-05-05T10:43:14.769Z,101483.78
2023-05-05T10:46:18.097Z,101480.63
2023-05-05T10:49:32.081Z,101474.91
2023-05-05T10:52:39.794Z,101474.16
2023-05-05T10:55:52.777Z,101475.13
2023-05-05T10:58:59.998Z,101483.97
2023-05-05T11:02:19.422Z,101464.25
2023-05-05T11:05:24.031Z,101468.88
2023-05-05T11:08:27.776Z,101455.88
2023-05-05T11:12:04.052Z,101466.34
2023-05-05T11:15:38.797Z,101452.75
2023-05-05T11:18:44.475Z,101443.97
2023-05-05T11:22:02.992Z,101434.69
2023-05-05T11:25:48.839Z,101441.69
2023-05-05T11:29:05.023Z,101445.75
2023-05-05T11:32:16.554Z,101444.53
2023-05-05T11:35:20.244Z,101436.41
2023-05-05T11:38:30.808Z,101434.16
2023-05-05T11:42:08.116Z,101429.91
2023-05-05T11:45:24.875Z,101433.44
2023-05-05T11:48:30.313Z,101415.28
2023-05-05T11:51:33.364Z,101419.94
2023-05-05T11:54:41.356Z,101415.78
2023-05-05T11:57:44.479Z,101419.88
2023-05-05T12:00:47.957Z,101411.25
2023-05-05T12:03:51.130Z,101405.28
2023-05-05T12:06:55.389Z,101404.91
2023-05-05T12:10:00.230Z,101398.56
2023-05-05T12:13:03.555Z,101396.38
2023-05-05T12:16:10.276Z,101402.25
2023-05-05T12:19:14.390Z,101394.50
2023-05-05T12:22:26.056Z,101394.78
2023-05-05T12:25:38.966Z,101391.47
2023-05-05T12:28:46.429Z,101396.19
2023-05-05T12:31:49.538Z,101379.53
2023-05-05T12:34:56.217Z,101380.78
2023-05-05T12:37:59.905Z,101379.91
2023-05-05T12:41:04.717Z,101379.06
2023-05-05T12:44:07.948Z,101374.34
2023-05-05T12:47:12.615Z,101378.94
2023-05-05T12:50:30.027Z,101383.59
2023-05-05T12:53:33.343Z,101386.91
2023-05-05T12:56:40.712Z,101387.41
2023-05-05T12:59:43.833Z,101388.81
2023-05-05T13:02:47.184Z,101379.97
2023-05-05T13:05:50.249Z,101375.31
2023-05-05T13:08:53.310Z,101375.81
2023-05-05T13:11:57.935Z,101366.91
2023-05-05T13:15:03.828Z,101365.56
2023-05-05T13:18:07.392Z,101352.69
2023-05-05T13:21:10.467Z,101350.38
2023-05-05T13:24:26.184Z,101350.41
2023-05-05T13:27:37.738Z,101343.25
2023-05-05T13:30:41.017Z,101344.38
2023-05-05T13:33:44.356Z,101335.16
2023-05-05T13:36:47.433Z,101329.22
2023-05-05T13:39:51.353Z,101328.19
2023-05-05T13:42:56.119Z,101336.03
2023-05-05T13:46:08.761Z,101332.84
2023-05-05T13:49:15.596Z,101322.72
2023-05-05T13:52:18.667Z,101318.09
2023-05-05T13:55:22.151Z,101315.28
2023-05-05T13:58:26.697Z,101308.09
2023-05-05T14:01:47.448Z,101307.59
2023-05-05T14:04:53.525Z,101307.28
2023-05-05T14:07:56.671Z,101303.66
2023-05-05T14:10:59.913Z,101308.31
2023-05-05T14:14:04.263Z,101300.53
2023-05-05T14:17:07.254Z,101289.06
2023-05-05T14:20:16.707Z,101287.75
2023-05-05T14:23:19.853Z,101291.38
2023-05-05T14:26:23.235Z,101283.09
2023-05-05T14:29:27.682Z,101283.28
2023-05-05T14:32:30.883Z,101287.56
2023-05-05T14:35:34.092Z,101277.53
2023-05-05T14:44:36.103Z,101269.03
2023-05-05T14:48:11.664Z,101277.97
2023-05-05T14:51:20.896Z,101270.69
2023-05-05T14:54:28.714Z,101272.16
2023-05-05T14:57:32.227Z,101263.38
2023-05-05T15:00:36.542Z,101259.84
2023-05-05T15:03:39.713Z,101262.13
2023-05-05T15:06:42.785Z,101263.47
2023-05-05T15:09:46.221Z,101263.91
2023-05-05T15:12:51.000Z,101260.47
2023-05-05T15:15:55.370Z,101252.84
2023-05-05T15:18:58.634Z,101262.59
2023-05-05T15:22:01.869Z,101253.59
2023-05-05T15:25:08.956Z,101255.25
2023-05-05T15:28:12.188Z,101250.53
2023-05-05T15:31:16.876Z,101244.88
2023-05-05T15:34:21.139Z,101251.44
2023-05-05T15:37:24.260Z,101253.25
2023-05-05T15:40:27.293Z,101253.53
2023-05-05T15:43:30.256Z,101246.38
2023-05-05T15:46:34.829Z,101230.56
2023-05-05T15:49:37.989Z,101240.00
2023-05-05T15:52:41.145Z,101237.31
2023-05-05T15:55:44.239Z,101235.78
2023-05-05T15:58:47.395Z,101240.81
2023-05-05T16:01:51.811Z,101233.13
2023-05-05T16:04:54.892Z,101228.97
2023-05-05T16:07:58.414Z,101237.34
2023-05-05T16:11:01.467Z,101240.88
2023-05-05T16:14:04.598Z,101238.56
2023-05-05T16:17:09.019Z,101233.78
2023-05-05T16:20:13.606Z,101237.09
2023-05-05T16:23:16.844Z,101223.91
2023-05-05T16:26:20.070Z,101228.44
2023-05-05T16:29:23.421Z,101236.50
2023-05-05T16:32:49.785Z,101227.59
2023-05-05T16:35:54.999Z,101231.50
2023-05-05T16:39:16.753Z,101224.41
2023-05-05T16:42:34.902Z,101223.41
2023-05-05T16:45:41.196Z,101229.53
2023-05-05T16:48:57.198Z,101220.94
2023-05-05T16:52:09.326Z,101220.44
2023-05-05T16:55:30.381Z,101216.25
2023-05-05T16:58:33.487Z,101220.94
2023-05-05T17:01:36.463Z,101222.97
2023-05-05T17:04:40.826Z,101218.28
2023-05-05T17:07:43.906Z,101218.66
2023-05-05T17:10:47.457Z,101216.03
2023-05-05T17:13:50.869Z,101210.00
2023-05-05T17:16:54.374Z,101219.06
2023-05-05T17:19:58.834Z,101218.44
2023-05-05T17:23:03.303Z,101204.84
2023-05-05T17:26:10.974Z,101215.69
2023-05-05T17:29:19.713Z,101218.91
2023-05-05T17:32:22.864Z,101221.53
2023-05-05T17:35:27.320Z,101217.50
2023-05-05T17:38:30.345Z,101214.31
2023-05-05T17:41:33.345Z,101214.09
2023-05-05T17:44:36.376Z,101210.47
2023-05-05T17:47:39.612Z,101212.97
2023-05-05T17:50:43.995Z,101212.16
2023-05-05T17:53:46.997Z,101223.41
2023-05-05T17:56:50.098Z,101216.88
2023-05-05T17:59:53.669Z,101221.03
2023-05-05T18:02:57.041Z,101226.03
2023-05-05T18:06:02.346Z,101217.16
2023-05-05T18:09:05.653Z,101221.03
2023-05-05T18:12:09.318Z,101208.25
2023-05-05T18:15:13.155Z,101211.31
2023-05-05T18:18:16.262Z,101215.03
2023-05-05T18:21:22.473Z,101224.84
2023-05-05T18:24:25.611Z,101217.16
2023-05-05T18:27:32.493Z,101218.69
2023-05-05T18:30:35.785Z,101233.03
2023-05-05T18:33:39.173Z,101228.59
2023-05-05T18:36:43.563Z,101229.13
2023-05-05T18:39:46.603Z,101238.25
2023-05-05T18:42:49.656Z,101236.84
2023-05-05T18:45:52.729Z,101244.66
2023-05-05T18:48:55.949Z,101245.06
2023-05-05T18:52:00.374Z,101251.81
2023-05-05T18:55:03.375Z,101246.94
2023-05-05T18:58:07.351Z,101249.56
2023-05-05T19:01:10.465Z,101261.69
2023-05-05T19:04:26.577Z,101267.47
2023-05-05T19:07:35.074Z,101259.81
2023-05-05T19:10:38.759Z,101264.09
2023-05-05T19:13:42.722Z,101277.16
2023-05-05T19:16:46.101Z,101266.94
2023-05-05T19:19:49.267Z,101272.31
2023-05-05T19:22:53.745Z,101256.63
2023-05-05T19:25:57.128Z,101257.06
2023-05-05T19:29:00.810Z,101264.75
2023-05-05T19:32:03.921Z,101277.41
2023-05-05T19:35:10.274Z,101259.69
2023-05-05T19:38:15.029Z,101268.47
2023-05-05T19:41:18.169Z,101268.25
2023-05-05T19:44:22.478Z,101273.41
2023-05-05T19:47:26.021Z,101269.41
2023-05-05T19:50:30.367Z,101288.25
2023-05-05T19:53:34.846Z,101287.19
2023-05-05T19:56:37.897Z,101291.84
2023-05-05T19:59:41.927Z,101296.88
2023-05-05T20:02:45.299Z,101277.31
2023-05-05T20:05:48.461Z,101279.00
2023-05-05T20:08:54.674Z,101275.91
2023-05-05T20:12:00.313Z,101276.38
2023-05-05T20:15:03.393Z,101276.13
2023-05-05T20:18:06.926Z,101278.53
2023-05-05T20:21:10.338Z,101277.94
2023-05-05T20:24:14.781Z,101277.78
2023-05-05T20:27:18.154Z,101274.69
2023-05-05T20:30:21.312Z,101275.88
2023-05-05T20:33:24.396Z,101272.16
2023-05-05T20:36:27.701Z,101283.00
2023-05-05T20:39:32.109Z,101275.25
2023-05-05T20:42:35.334Z,101278.94
2023-05-05T20:45:38.472Z,101275.59
2023-05-05T20:48:43.049Z,101272.00
2023-05-05T20:51:46.236Z,101266.16
2023-05-05T20:54:50.652Z,101270.56
2023-05-05T20:57:53.656Z,101265.78
2023-05-05T21:00:56.771Z,101270.31
2023-05-05T21:04:00.336Z,101274.59
2023-05-05T21:07:03.406Z,101274.84
2023-05-05T21:10:10.043Z,101276.03
2023-05-05T21:13:13.493Z,101269.34
2023-05-05T21:16:16.959Z,101266.22
2023-05-05T21:19:20.072Z,101264.91
2023-05-05T21:22:23.309Z,101260.75
2023-05-05T21:25:30.626Z,101267.63
2023-05-05T21:28:33.671Z,101260.97
2023-05-05T21:31:36.671Z,101248.56
2023-05-05T21:34:40.539Z,101252.59
2023-05-05T21:37:43.625Z,101256.69
2023-05-05T21:40:47.973Z,101250.25
2023-05-05T21:43:50.981Z,101252.13
2023-05-05T21:46:54.070Z,101252.34
2023-05-05T21:49:58.610Z,101244.50
2023-05-05T21:53:01.724Z,101250.06
2023-05-05T21:56:07.791Z,101239.09
2023-05-05T21:59:11.042Z,101249.78
2023-05-05T22:02:14.115Z,101258.84
2023-05-05T22:05:19.592Z,101260.13
2023-05-05T22:08:41.047Z,101251.41
2023-05-05T22:11:45.534Z,101248.19
2023-05-05T22:14:48.716Z,101247.13
2023-05-05T22:17:52.061Z,101244.28
2023-05-05T22:20:55.093Z,101260.78
2023-05-05T22:23:58.144Z,101272.19
2023-05-05T22:27:03.902Z,101276.69
2023-05-05T22:30:08.881Z,101287.38
2023-05-05T22:33:12.308Z,101282.56
2023-05-05T22:36:15.585Z,101281.31
2023-05-05T22:39:19.583Z,101279.63
2023-05-05T22:42:23.936Z,101271.97
2023-05-05T22:45:27.201Z,101274.06
2023-05-05T22:48:30.220Z,101274.69
2023-05-05T22:51:33.264Z,101282.03
2023-05-05T22:54:36.262Z,101284.13
2023-05-05T22:57:40.863Z,101284.34
2023-05-05T23:00:43.984Z,101270.66
2023-05-05T23:03:47.560Z,101265.97
2023-05-05T23:06:50.767Z,101272.00
2023-05-05T23:09:53.953Z,101260.53
2023-05-05T23:12:58.341Z,101259.69
2023-05-05T23:16:01.881Z,101259.28
2023-05-05T23:19:05.394Z,101253.41
2023-05-05T23:22:08.563Z,101247.38
2023-05-05T23:25:11.810Z,101251.94
2023-05-05T23:28:16.526Z,101249.16
2023-05-05T23:31:19.728Z,101247.50
2023-05-05T23:34:22.867Z,101249.78
2023-05-05T23:37:25.985Z,101247.56
2023-05-05T23:40:29.118Z,101240.56
2023-05-05T23:43:33.540Z,101240.53
2023-05-05T23:46:36.719Z,101231.53
2023-05-05T23:49:39.925Z,101231.97
2023-05-05T23:52:42.950Z,101220.16
2023-05-05T23:55:46.195Z,101225.97
2023-05-05T23:58:50.875Z,101233.38
